createdAt,value
2023-02-04T00:00:20.229Z,97612.19
2023-02-04T00:02:47.393Z,97623.50
2023-02-04T00:05:17.801Z,97633.03
2023-02-04T00:07:44.981Z,97632.75
2023-02-04T00:10:14.184Z,97618.97
2023-02-04T00:12:40.777Z,97604.72
2023-02-04T00:15:07.763Z,97606.91
2023-02-04T00:17:34.592Z,97610.75
2023-02-04T00:20:01.510Z,97622.63
2023-02-04T00:22:29.493Z,97632.53
2023-02-04T00:24:57.010Z,97629.28
2023-02-04T00:27:24.320Z,97627.44
2023-02-04T00:29:50.972Z,97632.50
2023-02-04T00:32:19.058Z,97634.81
2023-02-04T00:34:46.894Z,97636.31
2023-02-04T00:37:14.501Z,97649.47
2023-02-04T00:39:41.345Z,97649.53
2023-02-04T00:42:09.267Z,97650.72
2023-02-04T00:44:36.978Z,97656.34
2023-02-04T00:47:05.120Z,97658.88
2023-02-04T00:49:34.417Z,97659.72
2023-02-04T00:52:02.218Z,97647.03
2023-02-04T00:54:32.174Z,97651.63
2023-02-04T00:57:01.936Z,97643.56
2023-02-04T00:59:29.436Z,97648.22
2023-02-04T01:01:56.012Z,97643.94
2023-02-04T01:04:28.585Z,97650.03
2023-02-04T01:06:55.358Z,97655.19
2023-02-04T01:09:22.456Z,97661.78
2023-02-04T01:11:49.814Z,97651.84
2023-02-04T01:14:16.862Z,97639.34
2023-02-04T01:16:44.036Z,97639.94
2023-02-04T01:19:10.754Z,97658.22
2023-02-04T01:21:40.975Z,97651.47
2023-02-04T01:24:08.682Z,97642.09
2023-02-04T01:26:55.225Z,97640.88
2023-02-04T01:29:22.266Z,97647.34
2023-02-04T01:31:50.746Z,97647.66
2023-02-04T01:34:17.942Z,97644.72
2023-02-04T01:36:44.941Z,97632.31
2023-02-04T01:39:11.998Z,97636.97
2023-02-04T01:41:40.183Z,97642.91
2023-02-04T01:44:07.564Z,97639.34
2023-02-04T01:46:37.700Z,97649.22
2023-02-04T01:49:07.511Z,97658.00
2023-02-04T01:51:35.743Z,97651.63
2023-02-04T01:54:04.516Z,97645.53
2023-02-04T01:56:32.404Z,97639.94
2023-02-04T01:58:59.814Z,97622.25
2023-02-04T02:01:43.795Z,97623.88
2023-02-04T02:04:15.795Z,97632.19
2023-02-04T02:06:57.632Z,97637.53
2023-02-04T02:09:27.632Z,97626.91
2023-02-04T02:11:55.102Z,97626.88
2023-02-04T02:14:22.917Z,97625.50
2023-02-04T02:16:50.708Z,97627.72
2023-02-04T02:19:29.534Z,97621.47
2023-02-04T02:22:05.158Z,97616.25
2023-02-04T02:24:34.787Z,97613.38
2023-02-04T02:27:07.655Z,97608.53
2023-02-04T02:29:38.032Z,97608.13
2023-02-04T02:32:05.989Z,97608.06
2023-02-04T02:34:34.952Z,97617.84
2023-02-04T02:37:04.945Z,97614.44
2023-02-04T02:39:32.314Z,97607.84
2023-02-04T02:42:00.225Z,97610.44
2023-02-04T02:44:28.194Z,97608.66
2023-02-04T02:46:55.379Z,97602.69
2023-02-04T02:49:23.102Z,97589.97
2023-02-04T02:51:50.485Z,97598.47
2023-02-04T02:54:31.561Z,97597.88
2023-02-04T02:57:01.535Z,97581.00
2023-02-04T02:59:28.401Z,97581.88
2023-02-04T03:01:59.946Z,97590.59
2023-02-04T03:04:31.647Z,97586.69
2023-02-04T03:07:00.108Z,97588.25
2023-02-04T03:09:29.050Z,97586.28
2023-02-04T03:11:56.298Z,97582.34
2023-02-04T03:14:25.372Z,97586.69
2023-02-04T03:16:55.030Z,97595.63
2023-02-04T03:19:24.420Z,97582.22
2023-02-04T03:21:51.329Z,97600.00
2023-02-04T03:24:19.395Z,97610.13
2023-02-04T03:26:46.020Z,97612.06
2023-02-04T03:29:12.852Z,97599.09
2023-02-04T03:31:40.402Z,97607.28
2023-02-04T03:34:07.850Z,97607.91
2023-02-04T03:36:36.575Z,97607.75
2023-02-04T03:39:04.867Z,97594.41
2023-02-04T03:41:31.522Z,97603.38
2023-02-04T03:43:59.112Z,97593.97
2023-02-04T03:46:26.061Z,97589.19
2023-02-04T03:48:52.769Z,97587.97
2023-02-04T03:51:20.193Z,97584.81
2023-02-04T03:53:46.868Z,97591.03
2023-02-04T03:56:15.110Z,97586.88
2023-02-04T03:58:41.721Z,97586.06
2023-02-04T04:01:09.718Z,97612.63
2023-02-04T04:03:36.308Z,97616.19
2023-02-04T04:06:05.312Z,97615.63
2023-02-04T04:08:32.511Z,97615.38
2023-02-04T04:11:00.771Z,97607.03
2023-02-04T04:13:27.787Z,97616.41
2023-02-04T04:15:55.329Z,97633.03
2023-02-04T04:18:21.977Z,97631.66
2023-02-04T04:20:50.008Z,97646.88
2023-02-04T04:23:16.689Z,97643.41
2023-02-04T04:25:43.261Z,97648.09
2023-02-04T04:28:11.477Z,97656.25
2023-02-04T04:30:39.332Z,97663.13
2023-02-04T04:33:06.093Z,97680.13
2023-02-04T04:35:34.453Z,97690.94
2023-02-04T04:38:02.067Z,97705.25
2023-02-04T04:40:30.386Z,97705.16
2023-02-04T04:42:57.762Z,97711.84
2023-02-04T04:45:25.528Z,97718.63
2023-02-04T04:47:52.137Z,97731.28
2023-02-04T04:50:21.303Z,97730.44
2023-02-04T04:52:48.282Z,97728.66
2023-02-04T04:55:15.724Z,97729.19
2023-02-04T04:57:42.753Z,97739.69
2023-02-04T05:00:14.745Z,97744.09
2023-02-04T05:02:41.913Z,97764.09
2023-02-04T05:05:08.696Z,97782.56
2023-02-04T05:07:35.300Z,97785.56
2023-02-04T05:10:02.845Z,97798.72
2023-02-04T05:12:29.479Z,97788.63
2023-02-04T05:14:56.092Z,97791.44
2023-02-04T05:17:22.680Z,97803.03
2023-02-04T05:19:49.310Z,97813.63
2023-02-04T05:22:15.902Z,97825.44
2023-02-04T05:24:42.646Z,97830.44
2023-02-04T05:27:09.219Z,97833.69
2023-02-04T05:29:35.784Z,97829.19
2023-02-04T05:32:02.414Z,97828.06
2023-02-04T05:34:29.001Z,97833.66
2023-02-04T05:36:55.584Z,97831.22
2023-02-04T05:39:22.285Z,97844.09
2023-02-04T05:41:48.871Z,97836.06
2023-02-04T05:44:15.592Z,97842.44
2023-02-04T05:46:42.180Z,97833.16
2023-02-04T05:49:08.828Z,97855.91
2023-02-04T05:51:35.469Z,97830.44
2023-02-04T05:54:02.104Z,97830.31
2023-02-04T05:56:28.770Z,97811.66
2023-02-04T05:58:55.340Z,97827.94
2023-02-04T06:01:22.076Z,97835.81
2023-02-04T06:03:48.660Z,97836.38
2023-02-04T06:06:15.264Z,97835.09
2023-02-04T06:08:41.834Z,97829.66
2023-02-04T06:11:08.407Z,97835.16
2023-02-04T06:13:37.543Z,97848.66
2023-02-04T06:16:04.195Z,97854.88
2023-02-04T06:18:30.775Z,97853.19
2023-02-04T06:20:57.365Z,97851.63
2023-02-04T06:23:23.970Z,97864.66
2023-02-04T06:25:50.548Z,97865.31
2023-02-04T06:28:17.221Z,97872.38
2023-02-04T06:30:44.358Z,97885.41
2023-02-04T06:33:11.040Z,97897.03
2023-02-04T06:35:37.680Z,97903.47
2023-02-04T06:38:04.268Z,97923.00
2023-02-04T06:40:31.152Z,97927.47
2023-02-04T06:42:58.049Z,97927.75
2023-02-04T06:45:24.632Z,97939.38
2023-02-04T06:47:51.285Z,97951.75
2023-02-04T06:50:18.860Z,97965.03
2023-02-04T06:52:48.819Z,97969.81
2023-02-04T06:55:16.640Z,97978.63
2023-02-04T06:57:43.458Z,97994.91
2023-02-04T07:00:11.701Z,97990.81
2023-02-04T07:02:39.836Z,98000.47
2023-02-04T07:05:06.713Z,98012.22
2023-02-04T07:07:33.276Z,98024.34
2023-02-04T07:09:59.992Z,98035.50
2023-02-04T07:12:26.734Z,98048.16
2023-02-04T07:14:53.318Z,98067.13
2023-02-04T07:17:19.894Z,98082.38
2023-02-04T07:19:46.472Z,98096.78
2023-02-04T07:22:13.084Z,98102.44
2023-02-04T07:24:39.681Z,98108.19
2023-02-04T07:27:06.304Z,98118.00
2023-02-04T07:29:32.914Z,98126.88
2023-02-04T07:31:59.633Z,98137.78
2023-02-04T07:34:26.334Z,98142.44
2023-02-04T07:36:52.988Z,98157.38
2023-02-04T07:39:19.637Z,98148.31
2023-02-04T07:41:46.233Z,98148.63
2023-02-04T07:44:15.091Z,98160.13
2023-02-04T07:46:41.723Z,98153.66
2023-02-04T07:49:08.378Z,98151.75
2023-02-04T07:51:35.358Z,98149.78
2023-02-04T07:54:01.955Z,98151.13
2023-02-04T07:56:28.540Z,98154.38
2023-02-04T07:58:55.196Z,98153.75
2023-02-04T08:01:21.819Z,98173.28
2023-02-04T08:03:48.396Z,98182.28
2023-02-04T08:06:14.990Z,98176.75
2023-02-04T08:08:41.560Z,98186.41
2023-02-04T08:11:08.190Z,98185.78
2023-02-04T08:13:34.810Z,98193.53
2023-02-04T08:16:01.506Z,98204.91
2023-02-04T08:18:28.124Z,98219.25
2023-02-04T08:20:54.740Z,98230.06
2023-02-04T08:23:21.418Z,98237.13
2023-02-04T08:25:48.031Z,98247.91
2023-02-04T08:28:14.724Z,98245.94
2023-02-04T08:30:41.378Z,98237.66
2023-02-04T08:33:07.996Z,98248.91
2023-02-04T08:35:34.601Z,98244.38
2023-02-04T08:38:01.190Z,98254.28
2023-02-04T08:40:27.951Z,98251.44
2023-02-04T08:42:54.567Z,98255.28
2023-02-04T08:45:21.216Z,98254.50
2023-02-04T08:47:47.839Z,98265.94
2023-02-04T08:50:14.560Z,98268.50
2023-02-04T08:52:41.139Z,98284.03
2023-02-04T08:55:08.415Z,98286.38
2023-02-04T08:57:35.112Z,98281.88
2023-02-04T09:00:02.044Z,98282.06
2023-02-04T09:02:28.750Z,98295.72
2023-02-04T09:04:55.408Z,98299.19
2023-02-04T09:07:22.508Z,98305.97
2023-02-04T09:09:49.291Z,98314.13
2023-02-04T09:12:15.914Z,98314.69
2023-02-04T09:14:42.503Z,98333.03
2023-02-04T09:17:09.109Z,98342.19
2023-02-04T09:19:35.697Z,98345.59
2023-02-04T09:22:02.377Z,98366.00
2023-02-04T09:24:29.007Z,98369.03
2023-02-04T09:26:55.581Z,98368.78
2023-02-04T09:29:22.208Z,98371.97
2023-02-04T09:31:49.144Z,98373.00
2023-02-04T09:34:15.869Z,98379.63
2023-02-04T09:36:42.534Z,98374.03
2023-02-04T09:39:12.234Z,98387.31
2023-02-04T09:41:40.509Z,98380.53
2023-02-04T09:44:18.983Z,98403.63
2023-02-04T09:46:50.371Z,98394.69
2023-02-04T09:49:16.992Z,98417.03
2023-02-04T09:51:44.864Z,98421.13
2023-02-04T09:54:14.025Z,98431.78
2023-02-04T09:56:41.212Z,98439.88
2023-02-04T09:59:16.349Z,98432.75
2023-02-04T10:01:43.165Z,98442.22
2023-02-04T10:04:15.160Z,98438.56
2023-02-04T10:06:43.694Z,98446.00
2023-02-04T10:09:12.550Z,98453.81
2023-02-04T10:11:41.860Z,98469.16
2023-02-04T10:14:28.744Z,98463.25
2023-02-04T10:16:59.565Z,98472.22
2023-02-04T10:19:28.989Z,98485.84
2023-02-04T10:21:56.238Z,98483.25
2023-02-04T10:24:30.289Z,98490.38
2023-02-04T10:27:11.137Z,98514.19
2023-02-04T10:29:38.280Z,98514.25
2023-02-04T10:32:05.056Z,98515.53
2023-02-04T10:34:39.698Z,98524.13
2023-02-04T10:37:32.590Z,98527.88
2023-02-04T10:39:59.275Z,98518.94
2023-02-04T10:42:31.074Z,98508.19
2023-02-04T10:44:58.424Z,98508.75
2023-02-04T10:47:28.960Z,98502.56
2023-02-04T10:50:10.485Z,98505.84
2023-02-04T10:52:43.331Z,98498.41
2023-02-04T10:55:20.021Z,98505.84
2023-02-04T10:57:52.824Z,98500.69
2023-02-04T11:00:23.539Z,98514.63
2023-02-04T11:02:57.276Z,98495.00
2023-02-04T11:05:30.412Z,98490.88
2023-02-04T11:07:57.353Z,98490.09
2023-02-04T11:10:28.617Z,98503.94
2023-02-04T11:12:55.163Z,98497.00
2023-02-04T11:15:42.347Z,98487.59
2023-02-04T11:18:12.674Z,98507.75
2023-02-04T11:20:40.804Z,98493.25
2023-02-04T11:23:25.765Z,98499.63
2023-02-04T11:26:22.732Z,98471.47
2023-02-04T11:28:59.889Z,98483.16
2023-02-04T11:31:28.665Z,98501.09
2023-02-04T11:34:16.237Z,98494.59
2023-02-04T11:36:56.942Z,98497.91
2023-02-04T11:39:28.344Z,98491.03
2023-02-04T11:41:55.196Z,98513.84
2023-02-04T11:44:23.092Z,98507.09
2023-02-04T11:46:57.087Z,98511.09
2023-02-04T11:49:26.061Z,98512.22
2023-02-04T11:52:08.686Z,98548.72
2023-02-04T11:54:36.450Z,98507.13
2023-02-04T11:57:03.643Z,98508.69
2023-02-04T11:59:30.343Z,98519.00
2023-02-04T12:02:15.070Z,98518.47
2023-02-04T12:04:57.707Z,98513.75
2023-02-04T12:07:29.668Z,98526.78
2023-02-04T12:09:57.615Z,98517.97
2023-02-04T12:12:31.251Z,98518.72
2023-02-04T12:15:02.067Z,98523.06
2023-02-04T12:17:28.761Z,98513.69
2023-02-04T12:19:55.355Z,98528.38
2023-02-04T12:22:21.958Z,98537.31
2023-02-04T12:24:48.603Z,98532.91
2023-02-04T12:27:15.179Z,98535.41
2023-02-04T12:29:41.751Z,98535.50
2023-02-04T12:32:08.423Z,98533.00
2023-02-04T12:34:35.011Z,98540.75
2023-02-04T12:37:01.880Z,98548.16
2023-02-04T12:39:28.689Z,98551.59
2023-02-04T12:41:55.352Z,98554.72
2023-02-04T12:44:21.956Z,98547.56
2023-02-04T12:46:48.579Z,98559.25
2023-02-04T12:49:15.220Z,98561.38
2023-02-04T12:51:41.784Z,98556.03
2023-02-04T12:54:08.383Z,98557.13
2023-02-04T12:56:34.959Z,98552.31
2023-02-04T12:59:01.569Z,98542.50
2023-02-04T13:01:28.277Z,98549.19
2023-02-04T13:03:54.869Z,98549.97
2023-02-04T13:06:21.456Z,98559.97
2023-02-04T13:08:48.053Z,98570.25
2023-02-04T13:11:14.654Z,98572.75
2023-02-04T13:13:41.330Z,98578.56
2023-02-04T13:16:07.971Z,98588.75
2023-02-04T13:18:34.584Z,98576.13
2023-02-04T13:21:01.788Z,98587.13
2023-02-04T13:23:28.402Z,98591.03
2023-02-04T13:25:55.031Z,98594.72
2023-02-04T13:28:21.743Z,98614.28
2023-02-04T13:30:48.380Z,98604.00
2023-02-04T13:33:15.067Z,98626.84
2023-02-04T13:35:41.647Z,98620.81
2023-02-04T13:38:08.260Z,98634.13
2023-02-04T13:40:34.860Z,98634.72
2023-02-04T13:43:01.467Z,98624.78
2023-02-04T13:45:28.071Z,98632.31
2023-02-04T13:47:54.688Z,98651.00
2023-02-04T13:50:21.336Z,98653.44
2023-02-04T13:52:47.925Z,98665.22
2023-02-04T13:55:14.526Z,98670.69
2023-02-04T13:57:41.131Z,98665.66
2023-02-04T14:00:08.956Z,98670.13
2023-02-04T14:02:42.775Z,98670.78
2023-02-04T14:05:09.424Z,98664.75
2023-02-04T14:07:36.012Z,98683.13
2023-02-04T14:10:02.624Z,98668.66
2023-02-04T14:12:29.218Z,98669.63
2023-02-04T14:14:55.799Z,98668.00
2023-02-04T14:17:22.397Z,98666.69
2023-02-04T14:19:48.998Z,98660.56
2023-02-04T14:22:15.652Z,98677.56
2023-02-04T14:24:42.754Z,98670.66
2023-02-04T14:27:10.294Z,98682.72
2023-02-04T14:29:36.912Z,98694.00
2023-02-04T14:32:03.648Z,98689.84
2023-02-04T14:34:30.227Z,98704.59
2023-02-04T14:36:56.816Z,98700.44
2023-02-04T14:39:23.399Z,98696.50
2023-02-04T14:41:49.989Z,98710.59
2023-02-04T14:44:20.683Z,98703.06
2023-02-04T14:46:48.969Z,98703.13
2023-02-04T14:49:16.774Z,98715.25
2023-02-04T14:51:43.718Z,98722.13
2023-02-04T14:54:10.466Z,98710.34
2023-02-04T14:56:37.061Z,98709.84
2023-02-04T14:59:03.998Z,98714.19
2023-02-04T15:01:31.092Z,98711.50
2023-02-04T15:03:58.231Z,98718.50
2023-02-04T15:06:25.033Z,98716.34
2023-02-04T15:08:52.333Z,98705.63
2023-02-04T15:11:18.977Z,98719.09
2023-02-04T15:13:45.591Z,98724.69
2023-02-04T15:16:14.283Z,98722.06
2023-02-04T15:18:41.235Z,98724.28
2023-02-04T15:21:07.833Z,98731.34
2023-02-04T15:23:34.485Z,98731.72
2023-02-04T15:26:01.481Z,98737.56
2023-02-04T15:28:29.771Z,98738.00
2023-02-04T15:30:56.819Z,98751.22
2023-02-04T15:33:23.514Z,98738.00
2023-02-04T15:35:50.084Z,98758.22
2023-02-04T15:38:16.695Z,98766.38
2023-02-04T15:40:43.299Z,98759.88
2023-02-04T15:43:09.862Z,98766.91
2023-02-04T15:45:41.245Z,98775.50
2023-02-04T15:48:08.446Z,98777.03
2023-02-04T15:50:35.198Z,98783.47
2023-02-04T15:53:01.844Z,98785.59
2023-02-04T15:55:28.844Z,98788.78
2023-02-04T15:57:55.521Z,98798.81
2023-02-04T16:00:22.936Z,98807.28
2023-02-04T16:02:49.685Z,98791.41
2023-02-04T16:05:16.843Z,98810.28
2023-02-04T16:07:43.419Z,98817.53
2023-02-04T16:10:10.671Z,98830.44
2023-02-04T16:12:37.289Z,98820.22
2023-02-04T16:15:04.139Z,98833.63
2023-02-04T16:17:30.739Z,98835.38
2023-02-04T16:19:58.081Z,98849.34
2023-02-04T16:22:24.765Z,98832.81
2023-02-04T16:24:52.872Z,98859.88
2023-02-04T16:27:20.033Z,98848.78
2023-02-04T16:29:46.959Z,98859.69
2023-02-04T16:32:14.372Z,98878.25
2023-02-04T16:34:41.396Z,98855.97
2023-02-04T16:37:07.949Z,98874.81
2023-02-04T16:39:36.837Z,98894.19
2023-02-04T16:42:06.377Z,98879.16
2023-02-04T16:44:32.952Z,98894.47
2023-02-04T16:46:59.541Z,98890.38
2023-02-04T16:49:26.496Z,98886.28
2023-02-04T16:51:53.258Z,98889.91
2023-02-04T16:54:19.837Z,98882.53
2023-02-04T16:56:46.494Z,98891.31
2023-02-04T16:59:13.155Z,98893.34
2023-02-04T17:01:39.819Z,98907.63
2023-02-04T17:04:06.477Z,98896.38
2023-02-04T17:06:35.702Z,98906.66
2023-02-04T17:09:02.347Z,98901.47
2023-02-04T17:11:29.007Z,98905.41
2023-02-04T17:13:56.558Z,98909.44
2023-02-04T17:16:23.267Z,98910.59
2023-02-04T17:18:50.094Z,98924.25
2023-02-04T17:21:17.088Z,98921.78
2023-02-04T17:23:44.684Z,98922.56
2023-02-04T17:26:11.282Z,98935.13
2023-02-04T17:28:37.876Z,98934.88
2023-02-04T17:31:05.526Z,98950.06
2023-02-04T17:33:33.126Z,98954.41
2023-02-04T17:36:00.784Z,98963.19
2023-02-04T17:38:28.210Z,98971.63
2023-02-04T17:40:56.118Z,98964.50
2023-02-04T17:43:24.364Z,98972.38
2023-02-04T17:45:51.205Z,98978.59
2023-02-04T17:48:18.236Z,98974.38
2023-02-04T17:50:44.841Z,98988.47
2023-02-04T17:53:11.864Z,98988.19
2023-02-04T17:55:40.003Z,99000.72
2023-02-04T17:58:21.932Z,98999.91
2023-02-04T18:00:49.625Z,98994.72
2023-02-04T18:03:20.501Z,99001.69
2023-02-04T18:05:50.788Z,98994.50
2023-02-04T18:08:43.394Z,98994.69
2023-02-04T18:11:19.727Z,98998.72
2023-02-04T18:13:48.589Z,98997.13
2023-02-04T18:16:41.628Z,98992.13
2023-02-04T18:19:17.298Z,98992.22
2023-02-04T18:21:44.696Z,98998.31
2023-02-04T18:24:11.285Z,99001.31
2023-02-04T18:26:43.941Z,99008.09
2023-02-04T18:29:29.080Z,99004.25
2023-02-04T18:31:59.375Z,99012.38
2023-02-04T18:34:41.222Z,99008.34
2023-02-04T18:37:28.321Z,99012.22
2023-02-04T18:40:24.279Z,99007.66
2023-02-04T18:43:01.545Z,99009.44
2023-02-04T18:45:30.926Z,99018.88
2023-02-04T18:48:00.113Z,99024.78
2023-02-04T18:50:32.622Z,99027.63
2023-02-04T18:53:14.976Z,99014.06
2023-02-04T18:55:47.616Z,99016.00
2023-02-04T18:58:17.305Z,99022.47
2023-02-04T19:00:49.763Z,99013.19
2023-02-04T19:03:31.303Z,99020.88
2023-02-04T19:06:00.654Z,99010.97
2023-02-04T19:08:43.889Z,99011.69
2023-02-04T19:11:23.112Z,99026.53
2023-02-04T19:13:58.435Z,99020.28
2023-02-04T19:16:26.545Z,99026.44
2023-02-04T19:18:55.080Z,99017.78
2023-02-04T19:21:30.518Z,99030.63
2023-02-04T19:24:23.309Z,99037.69
2023-02-04T19:26:55.354Z,99042.19
2023-02-04T19:29:22.016Z,99048.78
2023-02-04T19:31:49.779Z,99054.38
2023-02-04T19:34:32.381Z,99033.09
2023-02-04T19:36:59.104Z,99054.59
2023-02-04T19:39:39.411Z,99040.91
2023-02-04T19:42:28.188Z,99040.75
2023-02-04T19:44:58.031Z,99038.41
2023-02-04T19:47:26.727Z,99039.47
2023-02-04T19:50:23.026Z,99034.13
2023-02-04T19:52:57.012Z,99044.78
2023-02-04T19:55:43.236Z,99051.75
2023-02-04T19:58:37.276Z,99050.44
2023-02-04T20:01:11.197Z,99043.34
2023-02-04T20:03:42.616Z,99043.66
2023-02-04T20:06:21.040Z,99045.47
2023-02-04T20:09:11.968Z,99040.59
2023-02-04T20:11:43.393Z,99037.19
2023-02-04T20:14:16.041Z,99042.34
2023-02-04T20:17:00.369Z,99034.38
2023-02-04T20:19:35.609Z,99030.91
2023-02-04T20:22:17.359Z,99028.03
2023-02-04T20:25:26.505Z,99030.00
2023-02-04T20:27:57.181Z,99018.91
2023-02-04T20:30:31.491Z,99027.66
2023-02-04T20:33:10.159Z,99040.63
2023-02-04T20:35:36.680Z,99042.78
2023-02-04T20:38:16.647Z,99038.56
2023-02-04T20:40:46.614Z,99037.66
2023-02-04T20:43:20.266Z,99046.75
2023-02-04T20:45:50.490Z,99043.59
2023-02-04T20:48:17.066Z,99048.91
2023-02-04T20:50:44.644Z,99060.22
2023-02-04T20:53:40.604Z,99060.19
2023-02-04T20:56:24.873Z,99060.22
2023-02-04T20:59:13.884Z,99069.66
2023-02-04T21:01:50.189Z,99072.25
2023-02-04T21:04:34.410Z,99073.66
2023-02-04T21:07:17.547Z,99070.47
2023-02-04T21:09:44.450Z,99071.41
2023-02-04T21:12:11.149Z,99074.06
2023-02-04T21:14:37.856Z,99080.94
2023-02-04T21:17:04.608Z,99080.94
2023-02-04T21:19:33.136Z,99074.94
2023-02-04T21:21:59.765Z,99079.41
2023-02-04T21:24:27.447Z,99083.13
2023-02-04T21:26:54.472Z,99072.75
2023-02-04T21:29:21.082Z,99076.94
2023-02-04T21:31:47.771Z,99075.16
2023-02-04T21:34:15.749Z,99071.59
2023-02-04T21:36:42.448Z,99068.94
2023-02-04T21:39:09.127Z,99066.91
2023-02-04T21:41:35.716Z,99071.31
2023-02-04T21:44:02.290Z,99080.16
2023-02-04T21:46:28.877Z,99073.59
2023-02-04T21:48:56.231Z,99086.38
2023-02-04T21:51:22.845Z,99080.13
2023-02-04T21:53:49.419Z,99090.47
2023-02-04T21:56:16.010Z,99094.28
2023-02-04T21:58:42.633Z,99087.59
2023-02-04T22:01:10.394Z,99082.53
2023-02-04T22:03:37.043Z,99084.75
2023-02-04T22:06:03.777Z,99092.59
2023-02-04T22:08:30.356Z,99098.66
2023-02-04T22:10:56.967Z,99089.31
2023-02-04T22:13:42.266Z,99089.88
2023-02-04T22:16:09.123Z,99089.88
2023-02-04T22:18:35.746Z,99094.34
2023-02-04T22:21:02.338Z,99098.41
2023-02-04T22:23:28.910Z,99100.38
2023-02-04T22:25:55.495Z,99098.75
2023-02-04T22:28:22.082Z,99108.41
2023-02-04T22:30:48.934Z,99103.44
2023-02-04T22:33:15.673Z,99111.22
2023-02-04T22:35:42.552Z,99116.53
2023-02-04T22:38:09.159Z,99115.00
2023-02-04T22:40:35.809Z,99115.22
2023-02-04T22:43:02.443Z,99110.97
2023-02-04T22:45:29.025Z,99117.94
2023-02-04T22:47:55.660Z,99119.50
2023-02-04T22:50:22.286Z,99113.66
2023-02-04T22:52:48.902Z,99113.72
2023-02-04T22:55:15.506Z,99113.81
2023-02-04T22:57:42.109Z,99115.91
2023-02-04T23:00:10.081Z,99115.31
2023-02-04T23:02:36.684Z,99114.59
2023-02-04T23:05:04.139Z,99113.06
2023-02-04T23:07:31.500Z,99113.06
2023-02-04T23:09:58.120Z,99109.06
2023-02-04T23:12:24.936Z,99102.38
2023-02-04T23:14:51.705Z,99104.41
2023-02-04T23:17:18.459Z,99111.44
2023-02-04T23:19:45.389Z,99111.59
2023-02-04T23:22:13.866Z,99115.94
2023-02-04T23:24:41.208Z,99110.03
2023-02-04T23:27:10.810Z,99104.22
2023-02-04T23:29:38.504Z,99115.50
2023-02-04T23:32:05.352Z,99113.00
2023-02-04T23:34:31.931Z,99122.63
2023-02-04T23:36:58.572Z,99114.94
2023-02-04T23:39:25.297Z,99115.84
2023-02-04T23:41:51.953Z,99110.69
2023-02-04T23:44:18.901Z,99126.31
2023-02-04T23:46:45.560Z,99123.69
2023-02-04T23:49:12.211Z,99118.66
2023-02-04T23:51:38.820Z,99116.06
2023-02-04T23:54:05.565Z,99117.16
2023-02-04T23:56:32.246Z,99119.84
2023-02-04T23:58:59.042Z,99123.19
